Time;durP1;ratioP1;P1;durP2;ratioP2;P2;SDS_P1;SDS_P2;PMS_P1;PMS_P2;Temp;Humidity;BMP_temperature;BMP_pressure;BME280_temperature;BME280_humidity;BME280_pressure;Samples;Min_cycle;Max_cycle;Signal;HPM_P1;HPM_P2
2021/06/30 00:01:59;;;;;;;;;10.75;10.75;;;;;19.24;64.33;100897.56;5065131;28;45285;-82
2021/06/30 00:04:25;;;;;;;;;11.25;10.75;;;;;19.22;64.30;100894.19;5065796;28;45678;-82
2021/06/30 00:06:50;;;;;;;;;14.50;11.50;;;;;19.21;64.68;100897.03;5063213;28;45466;-82
2021/06/30 00:09:17;;;;;;;;;13.25;9.50;;;;;19.16;65.63;100899.31;5061808;28;44781;-82
2021/06/30 00:11:42;;;;;;;;;14.75;10.00;;;;;19.18;65.28;100898.19;5063305;28;45401;-83
2021/06/30 00:14:09;;;;;;;;;14.25;11.00;;;;;19.14;64.90;100895.94;5079192;28;45338;-83
2021/06/30 00:16:35;;;;;;;;;12.50;12.25;;;;;19.16;64.77;100897.50;5082035;28;48225;-83
2021/06/30 00:19:03;;;;;;;;;11.25;9.00;;;;;19.18;66.08;100900.00;5081606;28;45429;-83
2021/06/30 00:21:29;;;;;;;;;16.25;10.25;;;;;19.19;66.34;100891.84;5081929;28;45342;-83
2021/06/30 00:23:55;;;;;;;;;6.00;6.00;;;;;19.22;65.24;100893.34;5084982;28;45193;-83
2021/06/30 00:26:20;;;;;;;;;12.25;8.25;;;;;19.19;64.64;100888.31;5079928;28;46889;-83
2021/06/30 00:28:46;;;;;;;;;11.00;10.75;;;;;19.16;65.30;100892.13;5065253;28;45535;-82
2021/06/30 00:31:12;;;;;;;;;8.00;8.00;;;;;19.11;64.99;100899.81;5083450;28;45450;-82
2021/06/30 00:33:37;;;;;;;;;10.25;9.25;;;;;19.07;65.97;100882.34;5083075;28;45614;-83
2021/06/30 00:36:03;;;;;;;;;9.75;7.75;;;;;19.09;65.29;100895.59;5085079;28;45432;-83
2021/06/30 00:38:29;;;;;;;;;10.75;8.00;;;;;19.01;65.81;100896.38;5080669;28;45357;-83
2021/06/30 00:40:54;;;;;;;;;9.00;8.00;;;;;18.98;65.34;100888.63;5066223;28;45295;-83
2021/06/30 00:43:19;;;;;;;;;9.25;8.75;;;;;18.88;66.41;100888.72;5064209;28;45309;-83
2021/06/30 00:45:48;;;;;;;;;7.50;6.75;;;;;18.73;73.51;100895.59;5062984;28;45236;-82
2021/06/30 00:48:14;;;;;;;;;9.50;7.50;;;;;18.64;74.57;100893.84;5061202;28;45265;-83
2021/06/30 00:50:39;;;;;;;;;8.75;6.25;;;;;18.68;69.01;100895.19;5062751;28;45631;-83
2021/06/30 00:53:04;;;;;;;;;11.00;8.75;;;;;18.67;68.21;100896.19;5061907;28;45387;-82
2021/06/30 00:55:30;;;;;;;;;7.00;7.00;;;;;18.67;67.60;100891.69;5064937;28;45438;-82
2021/06/30 00:57:55;;;;;;;;;8.25;7.50;;;;;18.67;67.55;100888.16;5074703;27;45421;-83
2021/06/30 01:00:21;;;;;;;;;11.50;6.50;;;;;18.74;67.07;100888.41;5084764;28;45322;-83
2021/06/30 01:02:46;;;;;;;;;8.00;7.75;;;;;18.79;68.25;100892.31;5084083;28;45450;-82
2021/06/30 01:05:12;;;;;;;;;8.50;6.00;;;;;18.78;66.99;100895.13;5083438;28;45415;-82
2021/06/30 01:07:37;;;;;;;;;6.00;5.75;;;;;18.75;67.50;100896.31;5082138;28;45463;-82
2021/06/30 01:10:04;;;;;;;;;4.00;4.00;;;;;18.73;66.96;100892.09;5062089;28;45382;-83
2021/06/30 01:12:30;;;;;;;;;6.75;6.75;;;;;18.68;67.48;100889.84;5062363;28;45403;-82
2021/06/30 01:14:56;;;;;;;;;6.75;5.50;;;;;18.57;68.77;100890.09;5060566;28;47102;-82
2021/06/30 01:17:21;;;;;;;;;8.00;7.25;;;;;18.55;69.59;100889.38;5063476;28;45363;-81
2021/06/30 01:19:47;;;;;;;;;6.25;5.50;;;;;18.45;68.69;100881.41;5076666;28;45268;-82
2021/06/30 01:22:12;;;;;;;;;9.00;5.75;;;;;18.45;68.35;100886.75;5065450;28;45261;-82
2021/06/30 01:24:38;;;;;;;;;6.00;5.25;;;;;18.44;68.44;100885.06;5062015;28;45277;-81
2021/06/30 01:27:05;;;;;;;;;8.00;7.00;;;;;18.47;68.19;100897.31;5062042;28;45211;-81
2021/06/30 01:29:30;;;;;;;;;6.75;6.00;;;;;18.51;68.45;100890.66;5061841;28;45462;-81
2021/06/30 01:31:56;;;;;;;;;7.50;7.50;;;;;18.56;68.22;100888.38;5061674;28;45286;-81
2021/06/30 01:34:21;;;;;;;;;10.25;8.50;;;;;18.61;67.79;100884.28;5065400;28;47558;-82
2021/06/30 01:36:49;;;;;;;;;7.75;6.50;;;;;18.67;68.81;100883.66;5080883;28;45513;-82
2021/06/30 01:39:15;;;;;;;;;6.75;6.75;;;;;18.52;72.56;100887.81;5082159;28;45418;-82
2021/06/30 01:41:41;;;;;;;;;7.25;5.50;;;;;18.41;71.47;100885.38;5086237;28;45425;-82
2021/06/30 01:44:07;;;;;;;;;7.50;7.50;;;;;18.18;74.96;100878.75;5082771;28;46348;-82
2021/06/30 01:46:33;;;;;;;;;5.00;5.00;;;;;17.93;80.84;100886.50;5082190;28;45034;-81
2021/06/30 01:48:58;;;;;;;;;10.00;9.00;;;;;17.79;83.83;100889.63;5065613;28;45239;-81
2021/06/30 01:51:24;;;;;;;;;7.00;6.50;;;;;17.75;77.35;100882.91;5061494;28;45223;-82
2021/06/30 01:53:53;;;;;;;;;7.00;6.00;;;;;17.68;81.68;100891.63;5059744;28;45854;-81
2021/06/30 01:56:27;;;;;;;;;10.25;7.50;;;;;17.67;79.67;100889.94;5070238;28;45295;-81
2021/06/30 01:59:00;;;;;;;;;9.25;7.75;;;;;17.66;77.69;100893.63;5062240;28;45451;-82
2021/06/30 02:01:26;;;;;;;;;8.25;7.75;;;;;17.58;86.09;100896.97;5064423;28;45395;-82
2021/06/30 02:03:51;;;;;;;;;12.00;7.75;;;;;17.58;80.00;100897.81;5063274;28;45421;-81
2021/06/30 02:06:16;;;;;;;;;7.00;7.00;;;;;17.54;78.73;100893.75;5060498;28;45445;-81
2021/06/30 02:08:42;;;;;;;;;7.00;6.00;;;;;17.53;77.90;100894.75;5060103;28;45520;-82
2021/06/30 02:11:07;;;;;;;;;11.00;10.00;;;;;17.53;77.28;100901.91;5060990;28;45341;-81
2021/06/30 02:13:33;;;;;;;;;6.75;6.75;;;;;17.53;75.45;100893.91;5059959;28;47185;-81
2021/06/30 02:15:58;;;;;;;;;10.25;7.75;;;;;17.57;74.34;100898.78;5060985;28;45393;-82
2021/06/30 02:18:23;;;;;;;;;8.00;8.00;;;;;17.64;74.57;100900.94;5068520;28;45393;-81
2021/06/30 02:20:49;;;;;;;;;10.00;8.50;;;;;17.71;73.61;100894.84;5083405;28;45546;-81
2021/06/30 02:23:14;;;;;;;;;9.75;6.25;;;;;17.78;72.82;100900.44;5083032;28;46112;-82
2021/06/30 02:25:40;;;;;;;;;8.75;7.00;;;;;17.79;73.02;100905.66;5078774;28;45374;-81
2021/06/30 02:28:05;;;;;;;;;8.50;6.25;;;;;17.78;73.20;100901.28;5079688;28;45507;-81
2021/06/30 02:30:32;;;;;;;;;8.75;8.00;;;;;17.82;74.29;100902.69;5080937;28;45164;-82
2021/06/30 02:32:59;;;;;;;;;9.50;7.00;;;;;17.83;73.97;100912.41;5074451;28;45364;-82
2021/06/30 02:35:25;;;;;;;;;8.00;6.75;;;;;17.83;73.73;100907.06;5061688;28;45205;-82
2021/06/30 02:37:54;;;;;;;;;16.25;8.50;;;;;17.88;72.85;100903.94;5079686;28;45378;-81
2021/06/30 02:40:21;;;;;;;;;9.50;8.50;;;;;17.94;72.54;100914.03;5084353;28;45341;-81
2021/06/30 02:42:47;;;;;;;;;13.50;9.00;;;;;17.99;71.77;100913.59;5084948;28;45257;-82
2021/06/30 02:45:15;;;;;;;;;9.75;9.75;;;;;17.99;72.00;100906.41;5080106;28;45270;-82
2021/06/30 02:47:42;;;;;;;;;11.00;9.00;;;;;18.07;71.98;100908.34;5064234;28;45378;-81
2021/06/30 02:50:09;;;;;;;;;11.50;10.00;;;;;18.11;70.85;100907.94;5080914;28;45527;-82
2021/06/30 02:52:34;;;;;;;;;12.50;9.00;;;;;18.14;69.64;100910.28;5080664;28;45509;-81
2021/06/30 02:55:00;;;;;;;;;11.00;9.50;;;;;18.21;68.88;100915.88;5079328;28;45320;-81
2021/06/30 02:57:26;;;;;;;;;11.50;9.50;;;;;18.24;68.80;100924.44;5069032;28;45449;-81
2021/06/30 02:59:51;;;;;;;;;11.75;8.50;;;;;18.31;68.56;100913.97;5060744;28;45394;-82
2021/06/30 03:02:17;;;;;;;;;9.00;9.00;;;;;18.38;68.08;100915.09;5064175;28;45232;-81
2021/06/30 03:04:42;;;;;;;;;10.50;10.00;;;;;18.40;67.56;100917.59;5062056;28;45257;-82
2021/06/30 03:07:08;;;;;;;;;9.50;9.00;;;;;18.35;66.56;100917.22;5059252;28;45571;-81
2021/06/30 03:09:33;;;;;;;;;10.75;9.75;;;;;18.32;66.88;100921.03;5059054;28;46225;-81
2021/06/30 03:11:59;;;;;;;;;11.75;10.75;;;;;18.35;66.99;100915.38;5060345;28;45351;-81
2021/06/30 03:14:24;;;;;;;;;13.25;9.75;;;;;18.40;66.65;100920.28;5060189;28;45255;-81
2021/06/30 03:16:50;;;;;;;;;13.50;9.00;;;;;18.40;66.30;100922.94;5060214;28;45669;-82
2021/06/30 03:19:15;;;;;;;;;12.25;10.75;;;;;18.40;66.46;100920.28;5075433;28;45320;-82
2021/06/30 03:21:41;;;;;;;;;11.50;10.50;;;;;18.44;66.35;100922.50;5079586;28;46148;-82
2021/06/30 03:24:06;;;;;;;;;12.25;11.50;;;;;18.48;66.42;100923.06;5061326;28;45454;-81
2021/06/30 03:26:32;;;;;;;;;12.75;10.75;;;;;18.45;66.63;100920.69;5060724;28;45331;-81
2021/06/30 03:29:00;;;;;;;;;14.75;9.75;;;;;18.42;66.11;100919.13;5073812;28;45394;-82
2021/06/30 03:31:26;;;;;;;;;8.75;8.75;;;;;18.44;66.00;100925.19;5059975;28;46237;-82
2021/06/30 03:33:51;;;;;;;;;12.75;9.50;;;;;18.47;66.03;100926.72;5059992;28;45223;-82
2021/06/30 03:36:17;;;;;;;;;9.75;9.00;;;;;18.52;65.63;100921.75;5068954;28;45319;-82
2021/06/30 03:38:42;;;;;;;;;14.00;9.00;;;;;18.58;65.90;100926.53;5078532;28;45165;-82
2021/06/30 03:41:07;;;;;;;;;12.50;9.75;;;;;18.58;65.44;100930.03;5081650;28;46540;-82
2021/06/30 03:43:33;;;;;;;;;15.00;10.50;;;;;18.59;65.62;100928.22;5071094;28;45286;-81
2021/06/30 03:45:58;;;;;;;;;11.50;9.75;;;;;18.64;65.33;100928.63;5060577;28;45262;-82
2021/06/30 03:48:24;;;;;;;;;12.75;10.50;;;;;18.64;65.07;100932.13;5059748;28;45212;-82
2021/06/30 03:50:49;;;;;;;;;15.25;12.00;;;;;18.58;65.17;100934.53;5065934;28;48559;-82
2021/06/30 03:53:14;;;;;;;;;17.25;12.75;;;;;18.51;65.05;100936.13;5066701;28;45643;-82
2021/06/30 03:55:40;;;;;;;;;17.25;16.00;;;;;18.44;64.91;100927.84;5063549;28;45173;-81
2021/06/30 03:58:05;;;;;;;;;14.00;11.75;;;;;18.47;65.27;100935.59;5066658;27;45500;-82
2021/06/30 04:00:30;;;;;;;;;16.50;12.00;;;;;18.52;65.24;100930.63;5063472;28;45386;-81
2021/06/30 04:02:56;;;;;;;;;15.00;13.00;;;;;18.54;65.44;100938.50;5062008;28;45484;-82
2021/06/30 04:05:23;;;;;;;;;16.00;13.00;;;;;18.58;65.11;100931.88;5060755;28;45416;-82
2021/06/30 04:07:48;;;;;;;;;14.25;11.25;;;;;18.63;64.75;100930.44;5058321;28;45461;-82
2021/06/30 04:10:15;;;;;;;;;14.00;10.75;;;;;18.64;64.60;100937.47;5059497;28;45408;-82
2021/06/30 04:12:41;;;;;;;;;11.50;11.00;;;;;18.61;64.31;100936.94;5062817;28;45475;-81
2021/06/30 04:15:07;;;;;;;;;13.50;12.00;;;;;18.61;64.61;100937.78;5078645;28;45218;-82
2021/06/30 04:17:34;;;;;;;;;16.00;12.25;;;;;18.56;64.13;100936.53;5077745;28;45597;-82
2021/06/30 04:19:59;;;;;;;;;12.00;12.00;;;;;18.53;64.43;100929.63;5058052;28;47206;-82
2021/06/30 04:22:27;;;;;;;;;14.00;9.75;;;;;18.51;64.32;100936.97;5062273;28;45477;-82
2021/06/30 04:24:52;;;;;;;;;17.00;10.50;;;;;18.47;65.21;100932.91;5062431;28;45319;-81
2021/06/30 04:27:18;;;;;;;;;15.00;12.00;;;;;18.44;64.94;100930.53;5074602;28;45319;-82
2021/06/30 04:29:43;;;;;;;;;13.50;11.25;;;;;18.45;65.11;100934.91;5081110;28;45338;-81
2021/06/30 04:32:09;;;;;;;;;13.75;10.50;;;;;18.46;65.62;100939.25;5082789;28;45428;-82
2021/06/30 04:34:34;;;;;;;;;9.25;9.25;;;;;18.49;65.08;100944.28;5083627;28;45763;-82
2021/06/30 04:36:59;;;;;;;;;11.00;11.00;;;;;18.49;64.88;100943.44;5066267;28;46264;-81
2021/06/30 04:39:27;;;;;;;;;13.50;11.00;;;;;18.50;64.89;100942.44;5063564;28;45335;-81
2021/06/30 04:41:53;;;;;;;;;11.25;9.25;;;;;18.50;64.81;100939.78;5066685;28;45249;-82
2021/06/30 04:44:18;;;;;;;;;13.25;9.00;;;;;18.49;65.57;100944.28;5065559;28;45465;-81
2021/06/30 04:46:43;;;;;;;;;11.75;9.00;;;;;18.48;65.07;100945.28;5062564;28;45486;-81
2021/06/30 04:49:08;;;;;;;;;11.25;8.50;;;;;18.50;64.95;100942.44;5063632;28;45898;-82
2021/06/30 04:51:34;;;;;;;;;12.25;10.50;;;;;18.46;65.29;100949.09;5064652;28;45231;-81
2021/06/30 04:53:59;;;;;;;;;13.00;10.25;;;;;18.42;65.47;100945.88;5062728;28;45162;-81
2021/06/30 04:56:28;;;;;;;;;10.00;7.50;;;;;18.41;65.61;100944.19;5072198;28;45522;-82
2021/06/30 04:58:54;;;;;;;;;13.00;11.25;;;;;18.40;65.56;100942.50;5080646;28;47280;-82
2021/06/30 05:01:20;;;;;;;;;11.00;10.00;;;;;18.41;65.18;100951.38;5083705;28;45485;-82
2021/06/30 05:03:46;;;;;;;;;11.75;9.00;;;;;18.38;65.50;100947.19;5083503;28;45296;-82
2021/06/30 05:06:12;;;;;;;;;10.50;9.25;;;;;18.32;66.81;100945.94;5082815;28;45251;-82
2021/06/30 05:08:38;;;;;;;;;9.50;7.25;;;;;18.30;65.67;100957.75;5082346;28;45880;-82
2021/06/30 05:11:03;;;;;;;;;9.00;7.50;;;;;18.26;66.02;100959.06;5076036;28;45340;-82
2021/06/30 05:13:28;;;;;;;;;9.00;7.25;;;;;18.23;65.90;100959.34;5070773;28;45352;-82
2021/06/30 05:15:54;;;;;;;;;8.50;7.75;;;;;18.22;65.58;100958.50;5062625;28;45267;-82
2021/06/30 05:18:19;;;;;;;;;8.00;7.75;;;;;18.27;65.88;100961.59;5068362;28;47661;-82
2021/06/30 05:20:45;;;;;;;;;8.75;7.00;;;;;18.19;65.99;100958.81;5084519;28;45399;-82
2021/06/30 05:23:10;;;;;;;;;10.00;8.50;;;;;18.14;70.51;100955.72;5086348;28;45276;-82
2021/06/30 05:25:36;;;;;;;;;6.50;6.50;;;;;18.11;66.90;100961.38;5078784;28;45413;-82
2021/06/30 05:28:02;;;;;;;;;10.00;8.25;;;;;18.15;66.52;100959.22;5074084;28;46988;-82
2021/06/30 05:30:27;;;;;;;;;8.50;6.75;;;;;18.20;66.03;100967.66;5070277;28;45417;-82
2021/06/30 05:32:53;;;;;;;;;7.25;6.50;;;;;18.16;66.62;100964.44;5068950;28;45328;-82
2021/06/30 05:35:18;;;;;;;;;8.00;8.00;;;;;18.19;66.56;100977.53;5070907;28;45535;-82
2021/06/30 05:37:43;;;;;;;;;7.25;7.25;;;;;18.22;65.97;100977.19;5071124;28;47250;-82
2021/06/30 05:40:09;;;;;;;;;9.50;8.50;;;;;18.22;66.25;100969.19;5085204;28;45372;-82
2021/06/30 05:42:35;;;;;;;;;8.25;8.25;;;;;18.27;65.68;100969.59;5065719;28;45292;-82
2021/06/30 05:45:01;;;;;;;;;8.50;7.00;;;;;18.30;65.94;100982.66;5065471;28;45215;-82
2021/06/30 05:47:26;;;;;;;;;10.25;9.00;;;;;18.30;65.75;100974.63;5076707;28;47953;-82
2021/06/30 05:49:51;;;;;;;;;8.75;7.00;;;;;18.35;65.68;100976.03;5079132;28;45481;-82
2021/06/30 05:52:19;;;;;;;;;9.75;8.00;;;;;18.37;65.66;100968.72;5079879;28;45227;-82
2021/06/30 05:54:45;;;;;;;;;9.00;7.00;;;;;18.38;65.61;100979.28;5073310;28;45147;-81
2021/06/30 05:57:10;;;;;;;;;9.25;6.50;;;;;18.38;65.53;100979.28;5074455;28;46015;-82
2021/06/30 05:59:35;;;;;;;;;7.00;7.00;;;;;18.41;65.90;100983.47;5065832;28;45585;-81
2021/06/30 06:02:01;;;;;;;;;8.75;7.75;;;;;18.41;65.28;100975.44;5074327;28;45338;-82
2021/06/30 06:04:26;;;;;;;;;9.50;6.00;;;;;18.45;65.17;100983.03;5076297;28;45557;-81
2021/06/30 06:06:51;;;;;;;;;5.75;5.00;;;;;18.52;65.10;100981.44;5081275;28;47293;-82
2021/06/30 06:09:17;;;;;;;;;6.00;6.00;;;;;18.53;64.34;100983.13;5073582;28;45844;-82
2021/06/30 06:11:42;;;;;;;;;6.50;6.00;;;;;18.51;65.09;100984.25;5073420;28;45891;-82
2021/06/30 06:14:08;;;;;;;;;6.75;5.25;;;;;18.51;64.86;100998.47;5082526;27;45485;-82
2021/06/30 06:16:33;;;;;;;;;8.00;7.00;;;;;18.49;65.19;100996.91;5078900;27;48185;-81
2021/06/30 06:18:58;;;;;;;;;7.00;6.25;;;;;18.47;65.97;100994.44;5068625;28;45503;-82
2021/06/30 06:21:24;;;;;;;;;9.25;6.50;;;;;18.52;65.70;101001.97;5076040;28;45549;-82
2021/06/30 06:23:49;;;;;;;;;6.00;6.00;;;;;18.51;65.61;100995.78;5079385;28;45516;-82
2021/06/30 06:26:20;;;;;;;;;9.50;7.75;;;;;18.51;65.22;101006.50;5075895;28;45528;-82
2021/06/30 06:28:47;;;;;;;;;9.50;8.00;;;;;18.51;65.47;101000.31;5072691;28;45612;-82
2021/06/30 06:31:15;;;;;;;;;8.00;6.50;;;;;18.50;65.14;101004.81;5074292;27;45432;-82
2021/06/30 06:33:41;;;;;;;;;6.00;5.50;;;;;18.48;65.26;101001.44;5077201;28;45160;-82
2021/06/30 06:36:08;;;;;;;;;7.00;7.00;;;;;18.49;65.64;101005.78;5072047;27;46029;-82
2021/06/30 06:38:37;;;;;;;;;10.50;7.75;;;;;18.53;65.97;101003.69;5076008;27;45521;-82
2021/06/30 06:41:02;;;;;;;;;8.75;7.50;;;;;18.58;65.52;101004.94;5072843;28;45586;-82
2021/06/30 06:43:28;;;;;;;;;8.00;7.25;;;;;18.60;64.99;101013.66;5081584;28;46380;-82
2021/06/30 06:45:53;;;;;;;;;9.00;6.00;;;;;18.60;65.04;101016.34;5084169;28;46324;-82
2021/06/30 06:48:18;;;;;;;;;7.00;7.00;;;;;18.63;65.28;101016.03;5079446;28;45442;-82
2021/06/30 06:50:44;;;;;;;;;7.25;6.75;;;;;18.68;64.63;101008.41;5074442;28;45454;-82
2021/06/30 06:53:09;;;;;;;;;10.50;8.75;;;;;18.69;64.57;101011.91;5076597;28;45456;-81
2021/06/30 06:55:35;;;;;;;;;9.00;6.75;;;;;18.71;64.59;101017.13;5070539;27;45528;-82
2021/06/30 06:58:00;;;;;;;;;9.00;9.00;;;;;18.71;64.07;101015.28;5074503;27;45421;-81
2021/06/30 07:00:26;;;;;;;;;9.75;8.75;;;;;18.79;64.51;101019.91;5079236;28;45490;-82
2021/06/30 07:02:51;;;;;;;;;12.75;10.25;;;;;18.82;64.00;101020.44;5074984;28;45437;-82
2021/06/30 07:05:17;;;;;;;;;11.50;8.75;;;;;18.83;64.19;101018.63;5076355;28;46920;-82
2021/06/30 07:07:43;;;;;;;;;9.00;7.25;;;;;18.87;63.44;101015.47;5078425;28;45418;-82
2021/06/30 07:10:09;;;;;;;;;11.50;9.25;;;;;18.92;63.69;101015.88;5070909;28;45239;-82
2021/06/30 07:12:35;;;;;;;;;10.75;8.75;;;;;18.95;63.43;101012.88;5073752;28;45465;-82
2021/06/30 07:15:01;;;;;;;;;8.25;8.00;;;;;19.03;63.08;101028.19;5062897;27;46849;-82
2021/06/30 07:17:30;;;;;;;;;7.75;7.75;;;;;19.05;62.57;101019.00;5075318;27;45482;-82
2021/06/30 07:19:55;;;;;;;;;10.00;8.25;;;;;19.03;62.81;101021.00;5068781;28;45326;-82
2021/06/30 07:22:21;;;;;;;;;10.25;7.00;;;;;19.05;62.04;101023.53;5075268;28;45346;-82
2021/06/30 07:24:46;;;;;;;;;12.50;9.00;;;;;19.07;62.53;101026.91;5073869;28;45506;-82
2021/06/30 07:27:12;;;;;;;;;11.25;8.00;;;;;19.10;62.53;101029.28;5076803;28;46199;-82
2021/06/30 07:29:38;;;;;;;;;10.50;9.00;;;;;19.06;61.88;101027.88;5071020;28;45310;-82
2021/06/30 07:32:04;;;;;;;;;9.75;8.00;;;;;19.05;62.18;101026.19;5075218;27;45476;-82
2021/06/30 07:34:29;;;;;;;;;8.25;8.25;;;;;19.09;61.86;101030.28;5074099;28;48179;-82
2021/06/30 07:36:55;;;;;;;;;7.50;7.50;;;;;19.18;62.37;101032.03;5072483;28;45440;-82
2021/06/30 07:39:20;;;;;;;;;8.25;8.00;;;;;19.24;61.27;101038.63;5076076;28;46612;-82
2021/06/30 07:41:46;;;;;;;;;13.50;10.00;;;;;19.27;61.70;101038.31;5072178;28;45522;-82
2021/06/30 07:44:11;;;;;;;;;10.25;8.25;;;;;19.32;62.04;101034.19;5075060;28;47773;-82
2021/06/30 07:46:37;;;;;;;;;11.00;9.00;;;;;19.40;61.40;101042.28;5071618;27;45362;-82
2021/06/30 07:49:02;;;;;;;;;11.00;7.75;;;;;19.40;61.11;101052.16;5070463;28;44879;-82
2021/06/30 07:51:28;;;;;;;;;8.00;8.00;;;;;19.42;60.62;101051.00;5076467;28;45658;-82
2021/06/30 07:53:54;;;;;;;;;10.00;10.00;;;;;19.46;60.86;101042.69;5074492;28;45286;-82
2021/06/30 07:56:33;;;;;;;;;10.50;8.75;;;;;19.52;60.73;101047.44;5075643;28;45702;-83
2021/06/30 07:59:02;;;;;;;;;10.50;10.00;;;;;19.60;60.58;101043.00;5068399;27;45903;-82
2021/06/30 08:01:28;;;;;;;;;13.75;11.25;;;;;19.69;59.95;101043.91;5078485;28;45485;-82
2021/06/30 08:03:53;;;;;;;;;14.25;11.25;;;;;19.85;60.14;101037.84;5079139;28;45568;-82
2021/06/30 08:06:19;;;;;;;;;12.75;9.75;;;;;20.03;59.71;101031.41;5078806;27;45470;-82
2021/06/30 08:08:44;;;;;;;;;11.75;11.75;;;;;20.25;59.46;101035.44;5081211;28;45448;-82
2021/06/30 08:11:09;;;;;;;;;12.75;9.50;;;;;20.59;59.15;101037.28;5076900;27;45391;-82
2021/06/30 08:13:35;;;;;;;;;14.50;11.75;;;;;20.94;58.22;101036.28;5072902;28;45417;-82
2021/06/30 08:16:00;;;;;;;;;8.75;8.75;;;;;21.06;57.76;101033.09;5076185;28;45207;-82
2021/06/30 08:18:25;;;;;;;;;11.25;9.00;;;;;21.15;56.09;101032.13;5078859;28;45435;-82
2021/06/30 08:20:52;;;;;;;;;9.50;7.50;;;;;21.13;56.68;101035.97;5077665;28;45169;-82
2021/06/30 08:23:18;;;;;;;;;12.25;9.00;;;;;21.08;56.73;101038.31;5077966;28;47236;-82
2021/06/30 08:25:45;;;;;;;;;9.75;9.00;;;;;21.16;57.01;101031.09;5075635;28;45227;-82
2021/06/30 08:28:11;;;;;;;;;11.50;8.00;;;;;21.23;55.88;101031.31;5071140;28;45319;-82
2021/06/30 08:30:37;;;;;;;;;11.50;9.25;;;;;21.35;54.54;101037.22;5069775;27;45591;-83
2021/06/30 08:33:02;;;;;;;;;13.00;9.75;;;;;21.47;55.62;101038.56;5063147;28;45543;-83
2021/06/30 08:35:28;;;;;;;;;11.50;11.50;;;;;21.59;53.57;101039.91;5073343;28;45303;-83
2021/06/30 08:37:54;;;;;;;;;6.75;5.00;;;;;21.66;54.08;101043.63;5063625;28;45528;-83
2021/06/30 08:40:20;;;;;;;;;13.50;8.50;;;;;21.62;54.29;101045.81;5068953;28;45520;-83
2021/06/30 08:42:46;;;;;;;;;8.50;8.50;;;;;21.62;54.01;101048.50;5082034;28;46163;-82
2021/06/30 08:45:12;;;;;;;;;16.25;10.25;;;;;21.48;52.85;101049.16;5064969;28;45493;-83
2021/06/30 08:47:40;;;;;;;;;9.00;8.25;;;;;21.35;52.05;101048.81;5066047;28;45246;-82
2021/06/30 08:50:07;;;;;;;;;11.50;10.50;;;;;21.25;52.52;101043.59;5080565;27;45706;-81
2021/06/30 08:52:35;;;;;;;;;14.75;13.25;;;;;21.38;53.46;101042.28;5079615;28;46123;-82
2021/06/30 08:55:03;;;;;;;;;11.50;8.50;;;;;21.65;53.46;101044.63;5065344;28;45369;-84
2021/06/30 08:57:29;;;;;;;;;10.00;8.25;;;;;21.86;53.08;101036.03;5074162;28;45235;-85
2021/06/30 08:59:57;;;;;;;;;12.75;10.75;;;;;22.08;51.54;101038.06;5063656;28;45530;-83
2021/06/30 09:02:22;;;;;;;;;12.25;10.50;;;;;22.59;49.88;101035.88;5066569;28;45429;-84
2021/06/30 09:04:52;;;;;;;;;15.75;11.75;;;;;24.06;46.71;101031.22;5063732;28;45331;-83
2021/06/30 09:07:17;;;;;;;;;11.75;9.25;;;;;25.26;46.44;101033.47;5067230;28;45225;-84
2021/06/30 09:09:43;;;;;;;;;6.75;6.00;;;;;25.56;44.20;101033.34;5061542;28;45561;-83
2021/06/30 09:12:09;;;;;;;;;13.75;8.75;;;;;25.35;43.45;101034.16;5062158;28;45957;-84
2021/06/30 09:14:37;;;;;;;;;9.25;8.00;;;;;25.03;45.23;101034.66;5060454;28;45264;-83
2021/06/30 09:17:24;;;;;;;;;13.25;10.00;;;;;24.46;43.76;101029.97;5061060;28;45520;-84
2021/06/30 09:19:54;;;;;;;;;10.75;8.75;;;;;23.92;46.10;101040.97;5080805;28;45388;-84
2021/06/30 09:22:22;;;;;;;;;13.75;10.00;;;;;23.46;47.13;101032.91;5086440;28;45518;-84
2021/06/30 09:24:48;;;;;;;;;15.00;10.00;;;;;23.04;47.45;101035.19;5080232;28;45496;-84
2021/06/30 09:27:16;;;;;;;;;12.50;10.75;;;;;22.83;48.10;101032.28;5061090;28;45450;-84
2021/06/30 09:29:43;;;;;;;;;13.50;9.50;;;;;22.80;47.97;101038.88;5066927;28;45319;-83
2021/06/30 09:32:10;;;;;;;;;8.00;8.00;;;;;22.80;48.46;101043.41;5070154;28;45735;-84
2021/06/30 09:34:42;;;;;;;;;12.25;9.00;;;;;22.64;48.62;101050.53;5062025;28;45421;-83
2021/06/30 09:37:08;;;;;;;;;9.00;9.00;;;;;22.60;49.31;101046.47;5060641;28;45249;-84
2021/06/30 09:39:55;;;;;;;;;10.00;8.75;;;;;22.66;48.81;101055.75;5061974;28;45188;-84
2021/06/30 09:42:22;;;;;;;;;14.75;10.00;;;;;22.65;49.60;101049.50;5063759;28;45891;-83
2021/06/30 09:44:49;;;;;;;;;11.50;10.25;;;;;22.75;49.03;101052.88;5063004;28;45272;-84
2021/06/30 09:47:14;;;;;;;;;10.50;9.00;;;;;22.89;48.87;101059.34;5062155;28;45300;-84
2021/06/30 09:49:40;;;;;;;;;10.25;10.00;;;;;23.09;48.94;101054.38;5060575;28;45555;-84
2021/06/30 09:52:16;;;;;;;;;15.75;11.75;;;;;23.29;47.27;101058.28;5061250;28;45254;-84
2021/06/30 09:54:44;;;;;;;;;8.25;8.00;;;;;23.19;47.25;101046.06;5060561;28;45182;-83
2021/06/30 09:57:12;;;;;;;;;10.75;9.00;;;;;23.12;47.70;101056.72;5074220;28;45346;-84
2021/06/30 09:59:40;;;;;;;;;11.00;9.50;;;;;23.10;46.17;101056.06;5060384;28;45271;-84
2021/06/30 10:02:10;;;;;;;;;12.25;11.25;;;;;23.11;47.06;101055.88;5071132;28;45465;-84
2021/06/30 10:04:38;;;;;;;;;8.25;8.25;;;;;23.14;47.43;101060.91;5083026;28;45439;-84
2021/06/30 10:07:11;;;;;;;;;12.00;9.50;;;;;23.18;46.07;101060.56;5084775;28;45386;-84
2021/06/30 10:09:38;;;;;;;;;10.00;10.00;;;;;23.14;46.70;101057.38;5083242;28;45177;-83
2021/06/30 10:12:09;;;;;;;;;10.25;9.00;;;;;23.02;46.33;101061.50;5081875;28;45415;-84
2021/06/30 10:14:40;;;;;;;;;13.00;12.25;;;;;22.92;46.67;101071.63;5081687;28;45173;-84
2021/06/30 10:17:08;;;;;;;;;11.50;9.75;;;;;22.63;47.36;101061.47;5080229;28;45283;-83
2021/06/30 10:19:37;;;;;;;;;16.00;10.00;;;;;22.46;48.94;101067.91;5081451;28;45177;-84
2021/06/30 10:22:05;;;;;;;;;10.00;10.00;;;;;22.66;48.47;101082.66;5081730;28;47422;-83
2021/06/30 10:24:31;;;;;;;;;11.50;10.75;;;;;22.76;48.35;101077.94;5084610;28;45391;-84
2021/06/30 10:26:56;;;;;;;;;14.00;9.75;;;;;22.91;47.90;101081.56;5079547;28;45867;-83
2021/06/30 10:29:29;;;;;;;;;10.25;9.00;;;;;23.06;47.51;101070.88;5080333;28;45463;-84
2021/06/30 10:32:06;;;;;;;;;12.25;10.25;;;;;22.95;47.37;101069.41;5081161;28;45446;-83
2021/06/30 10:34:40;;;;;;;;;15.50;9.50;;;;;22.87;47.77;101071.31;5080092;28;45430;-83
2021/06/30 10:37:20;;;;;;;;;12.25;7.00;;;;;22.77;47.40;101064.28;5079756;28;45251;-84
2021/06/30 10:39:50;;;;;;;;;12.00;12.00;;;;;22.87;47.58;101060.53;5081950;28;45448;-84
2021/06/30 10:42:38;;;;;;;;;12.75;9.75;;;;;23.04;45.74;101070.22;5084714;28;46192;-83
2021/06/30 10:45:12;;;;;;;;;12.00;8.25;;;;;23.10;45.33;101067.66;5083680;28;45444;-83
2021/06/30 10:47:45;;;;;;;;;11.25;10.25;;;;;23.02;45.68;101065.03;5073982;28;45270;-84
2021/06/30 10:50:16;;;;;;;;;11.50;10.75;;;;;22.77;45.73;101058.91;5059572;28;45526;-84
2021/06/30 10:52:42;;;;;;;;;15.25;11.00;;;;;22.45;46.77;101068.91;5060326;28;45434;-84
2021/06/30 10:58:14;;;;;;;;;12.75;10.25;;;;;22.00;47.28;101068.50;5060387;28;45479;-84
2021/06/30 11:00:45;;;;;;;;;10.75;10.00;;;;;21.85;47.61;101069.34;5064239;28;45408;-83
2021/06/30 11:03:22;;;;;;;;;16.00;13.25;;;;;21.74;47.47;101085.78;5080707;28;47926;-84
2021/06/30 11:05:52;;;;;;;;;10.75;10.75;;;;;21.62;48.31;101077.22;5082102;28;45319;-83
2021/06/30 11:08:43;;;;;;;;;15.25;14.75;;;;;21.58;48.50;101086.59;5081482;28;45223;-83
2021/06/30 11:11:31;;;;;;;;;15.50;14.25;;;;;21.55;48.78;101082.41;5079284;28;45334;-84
2021/06/30 11:14:11;;;;;;;;;18.00;14.50;;;;;21.83;48.11;101082.09;5080526;28;45353;-84
2021/06/30 11:19:14;;;;;;;;;17.75;14.00;;;;;23.13;44.50;101086.16;5080564;28;45500;-83
2021/06/30 11:21:54;;;;;;;;;15.50;13.50;;;;;23.72;42.95;101075.69;5083458;28;45414;-83